Thursday, January 18, 2018, 11:01 PM EST
Back to Local

KFWN, Sussex Airport

Location: Sussex, NJ, United States Lat: 41.2
Local Time: 11:01 PM EST ( 4:01 GMT) Lon: -74.633
Time Zone: US/Eastern Elev: 419 ft

Show me the last for .
Show Coded

Time T Td Feel RH Dir Speed Gust Alt SLP Vis Weather Sky Remarks
2018-01-18 21:53 12 7 - 79 - Calm - 30.06 30.09 9 CLR None
2018-01-18 20:53 19 11 - 70 - Calm - 30.04 30.06 10 CLR None
2018-01-18 19:53 16 9 - 73 - Calm - 30.02 30.05 10 CLR None
2018-01-18 18:53 25 11 - 54 - Calm - 30.01 30.03 10 CLR 6-hr Min Temp (7pm): 24.1°F
6-hr Max Temp (7pm): 30.0°F
2018-01-18 17:53 26 11 22 52 Variable 3 - 29.98 30.00 10 CLR None
2018-01-18 16:53 27 10 22 48 Variable 5 - 29.96 29.98 10 CLR None
2018-01-18 15:53 28 10 22 46 300° 6 - 29.95 29.97 10 CLR None
2018-01-18 14:53 29 10 16 44 Variable 7 18 29.93 29.95 10 CLR None
2018-01-18 13:53 29 9 22 42 Variable 7 - 29.94 29.96 10 CLR None
2018-01-18 12:53 27 8 19 44 290° 7 - 29.95 29.97 10 CLR 6-hr Min Temp (1pm): -4.0°F
6-hr Max Temp (1pm): 27.0°F
2018-01-18 11:53 25 7 19 45 Variable 5 - 30.00 30.02 10 CLR None
2018-01-18 10:53 23 7 16 49 Variable 6 - 30.04 30.06 10 CLR None
2018-01-18 09:53 11 7 - 83 - Calm - 30.05 30.07 10 CLR None
2018-01-18 08:53 5 5 - 100 - Calm - 30.05 30.07 9 CLR None
2018-01-18 07:53 -2 -3 - 95 - Calm - 30.06 30.09 7 CLR None
2018-01-18 06:53 -3 -7 - 81 - Calm - 30.05 30.08 9 CLR Pressure rising rapidly
24-hr Precip Total (7am): 0.09"
6-hr Min Temp (7am): -4.0°F
6-hr Max Temp (7am): 5.0°F
2018-01-18 05:53 -1 -5 - 82 - Calm - 30.03 30.05 9 CLR None
2018-01-18 04:53 -3 -6 - 86 - Calm - 30.02 30.04 9 CLR None
2018-01-18 03:53 -3 -5 - 90 - Calm - 30.08 30.10 9 CLR None
2018-01-18 02:53 1 -2 - 86 - Calm - 30.11 30.13 9 CLR None
2018-01-18 01:53 2 0 - 91 - Calm - 30.12 30.15 7 CLR None
2018-01-18 00:53 4 2 - 91 - Calm - 30.14 30.16 8 CLR 6-hr Min Temp (1am): 3.9°F
6-hr Max Temp (1am): 19.9°F
2018-01-17 23:53 8 4 - 82 - Calm - 30.15 30.17 10 CLR 24-hr Min Temp (12am): 7.0°F
24-hr Max Temp (12am): 30.9°F

Support USWX by starting your Amazon purchase here.